sensor_id;sensor_type;location;lat;lon;timestamp;P1;durP1;ratioP1;P2;durP2;ratioP2
63320;SDS011;49449;48.800;9.534;2023-04-06T00:01:48;10.50;;;7.28;;
63320;SDS011;49449;48.800;9.534;2023-04-06T00:04:16;13.50;;;7.57;;
63320;SDS011;49449;48.800;9.534;2023-04-06T00:06:44;11.18;;;7.15;;
63320;SDS011;49449;48.800;9.534;2023-04-06T00:09:13;10.85;;;7.20;;
63320;SDS011;49449;48.800;9.534;2023-04-06T00:11:41;9.43;;;7.28;;
63320;SDS011;49449;48.800;9.534;2023-04-06T00:14:09;8.90;;;7.63;;
63320;SDS011;49449;48.800;9.534;2023-04-06T00:16:37;7.53;;;6.72;;
63320;SDS011;49449;48.800;9.534;2023-04-06T00:19:05;10.00;;;6.47;;
63320;SDS011;49449;48.800;9.534;2023-04-06T00:21:32;9.75;;;7.95;;
63320;SDS011;49449;48.800;9.534;2023-04-06T00:24:00;9.77;;;6.57;;
63320;SDS011;49449;48.800;9.534;2023-04-06T00:26:31;9.48;;;7.07;;
63320;SDS011;49449;48.800;9.534;2023-04-06T00:28:59;11.60;;;7.60;;
63320;SDS011;49449;48.800;9.534;2023-04-06T00:31:27;13.27;;;7.13;;
63320;SDS011;49449;48.800;9.534;2023-04-06T00:33:55;7.60;;;6.22;;
63320;SDS011;49449;48.800;9.534;2023-04-06T00:36:22;9.38;;;6.93;;
63320;SDS011;49449;48.800;9.534;2023-04-06T00:38:51;10.20;;;7.20;;
63320;SDS011;49449;48.800;9.534;2023-04-06T00:41:19;12.00;;;7.45;;
63320;SDS011;49449;48.800;9.534;2023-04-06T00:43:49;11.65;;;7.72;;
63320;SDS011;49449;48.800;9.534;2023-04-06T00:46:16;12.95;;;7.47;;
63320;SDS011;49449;48.800;9.534;2023-04-06T00:48:44;11.80;;;6.60;;
63320;SDS011;49449;48.800;9.534;2023-04-06T00:51:12;11.43;;;7.40;;
63320;SDS011;49449;48.800;9.534;2023-04-06T00:53:40;10.77;;;7.28;;
63320;SDS011;49449;48.800;9.534;2023-04-06T00:56:09;10.73;;;7.18;;
63320;SDS011;49449;48.800;9.534;2023-04-06T00:58:36;10.98;;;7.50;;
63320;SDS011;49449;48.800;9.534;2023-04-06T01:01:06;10.50;;;6.93;;
63320;SDS011;49449;48.800;9.534;2023-04-06T01:03:34;10.68;;;6.30;;
63320;SDS011;49449;48.800;9.534;2023-04-06T01:06:02;10.38;;;6.43;;
63320;SDS011;49449;48.800;9.534;2023-04-06T01:08:30;10.88;;;7.68;;
63320;SDS011;49449;48.800;9.534;2023-04-06T01:10:59;9.27;;;6.10;;
63320;SDS011;49449;48.800;9.534;2023-04-06T01:13:27;7.70;;;5.78;;
63320;SDS011;49449;48.800;9.534;2023-04-06T01:15:55;9.63;;;6.60;;
63320;SDS011;49449;48.800;9.534;2023-04-06T01:18:26;10.70;;;7.18;;
63320;SDS011;49449;48.800;9.534;2023-04-06T01:20:54;10.80;;;6.80;;
63320;SDS011;49449;48.800;9.534;2023-04-06T01:23:24;9.25;;;6.45;;
63320;SDS011;49449;48.800;9.534;2023-04-06T01:25:52;9.05;;;6.45;;
63320;SDS011;49449;48.800;9.534;2023-04-06T01:28:20;14.35;;;7.35;;
63320;SDS011;49449;48.800;9.534;2023-04-06T01:30:48;9.35;;;6.22;;
63320;SDS011;49449;48.800;9.534;2023-04-06T01:33:15;10.15;;;7.38;;
63320;SDS011;49449;48.800;9.534;2023-04-06T01:35:43;11.05;;;8.05;;
63320;SDS011;49449;48.800;9.534;2023-04-06T01:38:11;10.10;;;7.20;;
63320;SDS011;49449;48.800;9.534;2023-04-06T01:40:40;9.70;;;7.07;;
63320;SDS011;49449;48.800;9.534;2023-04-06T01:43:08;9.88;;;7.13;;
63320;SDS011;49449;48.800;9.534;2023-04-06T01:45:36;11.32;;;6.75;;
63320;SDS011;49449;48.800;9.534;2023-04-06T01:48:04;12.07;;;8.75;;
63320;SDS011;49449;48.800;9.534;2023-04-06T01:50:32;9.95;;;7.18;;
63320;SDS011;49449;48.800;9.534;2023-04-06T01:53:00;8.60;;;6.68;;
63320;SDS011;49449;48.800;9.534;2023-04-06T01:55:28;8.63;;;6.60;;
63320;SDS011;49449;48.800;9.534;2023-04-06T01:57:57;8.88;;;7.05;;
63320;SDS011;49449;48.800;9.534;2023-04-06T02:00:25;9.38;;;7.05;;
63320;SDS011;49449;48.800;9.534;2023-04-06T02:02:53;8.13;;;7.20;;
63320;SDS011;49449;48.800;9.534;2023-04-06T02:05:21;9.70;;;7.50;;
63320;SDS011;49449;48.800;9.534;2023-04-06T02:07:48;11.48;;;7.50;;
63320;SDS011;49449;48.800;9.534;2023-04-06T02:10:17;10.00;;;6.60;;
63320;SDS011;49449;48.800;9.534;2023-04-06T02:12:45;9.95;;;6.50;;
63320;SDS011;49449;48.800;9.534;2023-04-06T02:15:15;11.15;;;7.75;;
63320;SDS011;49449;48.800;9.534;2023-04-06T02:17:43;11.25;;;7.65;;
63320;SDS011;49449;48.800;9.534;2023-04-06T02:20:11;10.60;;;7.78;;
63320;SDS011;49449;48.800;9.534;2023-04-06T02:22:39;10.70;;;7.30;;
63320;SDS011;49449;48.800;9.534;2023-04-06T02:25:07;9.80;;;7.13;;
63320;SDS011;49449;48.800;9.534;2023-04-06T02:27:36;11.55;;;7.60;;
63320;SDS011;49449;48.800;9.534;2023-04-06T02:30:04;8.02;;;7.00;;
63320;SDS011;49449;48.800;9.534;2023-04-06T02:32:34;9.23;;;6.65;;
63320;SDS011;49449;48.800;9.534;2023-04-06T02:35:02;8.40;;;6.80;;
63320;SDS011;49449;48.800;9.534;2023-04-06T02:37:30;9.05;;;7.25;;
63320;SDS011;49449;48.800;9.534;2023-04-06T02:39:58;9.75;;;7.50;;
63320;SDS011;49449;48.800;9.534;2023-04-06T02:42:26;9.07;;;6.63;;
63320;SDS011;49449;48.800;9.534;2023-04-06T02:44:53;11.23;;;7.10;;
63320;SDS011;49449;48.800;9.534;2023-04-06T02:47:21;8.65;;;7.20;;
63320;SDS011;49449;48.800;9.534;2023-04-06T02:49:51;9.73;;;6.88;;
63320;SDS011;49449;48.800;9.534;2023-04-06T02:52:18;9.18;;;7.18;;
63320;SDS011;49449;48.800;9.534;2023-04-06T02:54:46;9.32;;;7.10;;
63320;SDS011;49449;48.800;9.534;2023-04-06T02:57:14;9.05;;;6.97;;
63320;SDS011;49449;48.800;9.534;2023-04-06T02:59:42;9.52;;;7.20;;
63320;SDS011;49449;48.800;9.534;2023-04-06T03:02:10;8.85;;;6.18;;
63320;SDS011;49449;48.800;9.534;2023-04-06T03:04:38;9.40;;;7.65;;
63320;SDS011;49449;48.800;9.534;2023-04-06T03:07:07;9.20;;;6.90;;
63320;SDS011;49449;48.800;9.534;2023-04-06T03:09:36;8.20;;;7.10;;
63320;SDS011;49449;48.800;9.534;2023-04-06T03:12:04;8.25;;;5.55;;
63320;SDS011;49449;48.800;9.534;2023-04-06T03:14:34;7.75;;;6.95;;
63320;SDS011;49449;48.800;9.534;2023-04-06T03:17:02;9.05;;;6.97;;
63320;SDS011;49449;48.800;9.534;2023-04-06T03:19:30;7.53;;;6.72;;
63320;SDS011;49449;48.800;9.534;2023-04-06T03:21:58;8.93;;;6.55;;
63320;SDS011;49449;48.800;9.534;2023-04-06T03:24:27;9.40;;;7.32;;
63320;SDS011;49449;48.800;9.534;2023-04-06T03:26:55;11.82;;;7.57;;
63320;SDS011;49449;48.800;9.534;2023-04-06T03:29:22;7.15;;;6.50;;
63320;SDS011;49449;48.800;9.534;2023-04-06T03:31:50;10.20;;;6.75;;
63320;SDS011;49449;48.800;9.534;2023-04-06T03:34:19;8.45;;;6.82;;
63320;SDS011;49449;48.800;9.534;2023-04-06T03:36:47;9.07;;;6.75;;
63320;SDS011;49449;48.800;9.534;2023-04-06T03:39:21;9.50;;;7.90;;
63320;SDS011;49449;48.800;9.534;2023-04-06T03:41:51;9.15;;;7.30;;
63320;SDS011;49449;48.800;9.534;2023-04-06T03:44:18;10.68;;;6.40;;
63320;SDS011;49449;48.800;9.534;2023-04-06T03:46:46;8.68;;;7.78;;
63320;SDS011;49449;48.800;9.534;2023-04-06T03:49:14;10.98;;;7.18;;
63320;SDS011;49449;48.800;9.534;2023-04-06T03:51:42;14.25;;;7.63;;
63320;SDS011;49449;48.800;9.534;2023-04-06T03:54:10;12.27;;;8.65;;
63320;SDS011;49449;48.800;9.534;2023-04-06T03:56:38;12.98;;;8.35;;
63320;SDS011;49449;48.800;9.534;2023-04-06T03:59:07;13.15;;;8.98;;
63320;SDS011;49449;48.800;9.534;2023-04-06T04:01:35;11.90;;;8.27;;
63320;SDS011;49449;48.800;9.534;2023-04-06T04:04:03;10.32;;;6.82;;
63320;SDS011;49449;48.800;9.534;2023-04-06T04:06:31;12.60;;;8.10;;
63320;SDS011;49449;48.800;9.534;2023-04-06T04:08:59;11.73;;;8.23;;
63320;SDS011;49449;48.800;9.534;2023-04-06T04:11:27;10.95;;;7.60;;
63320;SDS011;49449;48.800;9.534;2023-04-06T04:13:54;10.15;;;7.95;;
63320;SDS011;49449;48.800;9.534;2023-04-06T04:16:24;9.70;;;7.32;;
63320;SDS011;49449;48.800;9.534;2023-04-06T04:18:51;7.82;;;6.45;;
63320;SDS011;49449;48.800;9.534;2023-04-06T04:21:19;9.00;;;7.15;;
63320;SDS011;49449;48.800;9.534;2023-04-06T04:23:47;10.00;;;7.38;;
63320;SDS011;49449;48.800;9.534;2023-04-06T04:26:15;9.52;;;7.03;;
63320;SDS011;49449;48.800;9.534;2023-04-06T04:28:43;10.98;;;7.03;;
63320;SDS011;49449;48.800;9.534;2023-04-06T04:31:11;8.93;;;7.22;;
63320;SDS011;49449;48.800;9.534;2023-04-06T04:33:40;7.68;;;6.80;;
63320;SDS011;49449;48.800;9.534;2023-04-06T04:36:08;9.50;;;7.20;;
63320;SDS011;49449;48.800;9.534;2023-04-06T04:38:36;10.35;;;7.70;;
63320;SDS011;49449;48.800;9.534;2023-04-06T04:41:04;9.05;;;7.07;;
63320;SDS011;49449;48.800;9.534;2023-04-06T04:43:32;9.15;;;7.57;;
63320;SDS011;49449;48.800;9.534;2023-04-06T04:46:00;9.40;;;7.07;;
63320;SDS011;49449;48.800;9.534;2023-04-06T04:48:27;8.57;;;6.90;;
63320;SDS011;49449;48.800;9.534;2023-04-06T04:50:57;9.57;;;7.45;;
63320;SDS011;49449;48.800;9.534;2023-04-06T04:53:25;7.45;;;6.05;;
63320;SDS011;49449;48.800;9.534;2023-04-06T04:55:52;12.05;;;7.82;;
63320;SDS011;49449;48.800;9.534;2023-04-06T04:58:20;8.90;;;7.40;;
63320;SDS011;49449;48.800;9.534;2023-04-06T05:00:48;7.95;;;7.15;;
63320;SDS011;49449;48.800;9.534;2023-04-06T05:03:17;10.20;;;6.63;;
63320;SDS011;49449;48.800;9.534;2023-04-06T05:05:48;9.70;;;7.22;;
63320;SDS011;49449;48.800;9.534;2023-04-06T05:08:17;9.25;;;7.65;;
63320;SDS011;49449;48.800;9.534;2023-04-06T05:10:45;9.30;;;7.65;;
63320;SDS011;49449;48.800;9.534;2023-04-06T05:13:14;9.15;;;8.15;;
63320;SDS011;49449;48.800;9.534;2023-04-06T05:15:42;8.75;;;6.65;;
63320;SDS011;49449;48.800;9.534;2023-04-06T05:18:10;9.32;;;7.65;;
63320;SDS011;49449;48.800;9.534;2023-04-06T05:20:38;8.10;;;7.30;;
63320;SDS011;49449;48.800;9.534;2023-04-06T05:23:06;9.65;;;7.80;;
63320;SDS011;49449;48.800;9.534;2023-04-06T05:25:35;8.45;;;6.78;;
63320;SDS011;49449;48.800;9.534;2023-04-06T05:28:03;8.48;;;7.47;;
63320;SDS011;49449;48.800;9.534;2023-04-06T05:30:31;9.77;;;7.35;;
63320;SDS011;49449;48.800;9.534;2023-04-06T05:32:59;13.25;;;8.38;;
63320;SDS011;49449;48.800;9.534;2023-04-06T05:35:27;13.27;;;8.23;;
63320;SDS011;49449;48.800;9.534;2023-04-06T05:37:55;12.23;;;7.95;;
63320;SDS011;49449;48.800;9.534;2023-04-06T05:40:23;10.93;;;8.13;;
63320;SDS011;49449;48.800;9.534;2023-04-06T05:42:52;8.15;;;6.65;;
63320;SDS011;49449;48.800;9.534;2023-04-06T05:45:20;9.15;;;6.75;;
63320;SDS011;49449;48.800;9.534;2023-04-06T05:47:48;10.82;;;8.10;;
63320;SDS011;49449;48.800;9.534;2023-04-06T05:50:16;9.63;;;7.32;;
63320;SDS011;49449;48.800;9.534;2023-04-06T05:52:44;7.88;;;7.07;;
63320;SDS011;49449;48.800;9.534;2023-04-06T05:55:12;8.70;;;7.60;;
63320;SDS011;49449;48.800;9.534;2023-04-06T05:57:40;10.10;;;8.48;;
63320;SDS011;49449;48.800;9.534;2023-04-06T06:00:10;18.90;;;10.65;;
63320;SDS011;49449;48.800;9.534;2023-04-06T06:02:39;12.48;;;9.02;;
63320;SDS011;49449;48.800;9.534;2023-04-06T06:05:08;11.57;;;7.55;;
63320;SDS011;49449;48.800;9.534;2023-04-06T06:07:36;10.10;;;7.78;;
63320;SDS011;49449;48.800;9.534;2023-04-06T06:10:04;9.63;;;7.68;;
63320;SDS011;49449;48.800;9.534;2023-04-06T06:12:33;9.57;;;6.95;;
63320;SDS011;49449;48.800;9.534;2023-04-06T06:15:01;8.93;;;7.05;;
63320;SDS011;49449;48.800;9.534;2023-04-06T06:17:30;10.35;;;7.80;;
63320;SDS011;49449;48.800;9.534;2023-04-06T06:19:59;8.95;;;8.05;;
63320;SDS011;49449;48.800;9.534;2023-04-06T06:22:27;11.32;;;8.63;;
63320;SDS011;49449;48.800;9.534;2023-04-06T06:24:55;10.85;;;8.45;;
63320;SDS011;49449;48.800;9.534;2023-04-06T06:27:23;9.80;;;8.27;;
63320;SDS011;49449;48.800;9.534;2023-04-06T06:29:51;10.02;;;7.97;;
63320;SDS011;49449;48.800;9.534;2023-04-06T06:32:19;9.95;;;7.70;;
63320;SDS011;49449;48.800;9.534;2023-04-06T06:34:48;9.40;;;7.53;;
63320;SDS011;49449;48.800;9.534;2023-04-06T06:37:16;8.52;;;7.65;;
63320;SDS011;49449;48.800;9.534;2023-04-06T06:39:44;8.95;;;7.28;;
63320;SDS011;49449;48.800;9.534;2023-04-06T06:42:11;10.90;;;8.50;;
63320;SDS011;49449;48.800;9.534;2023-04-06T06:44:40;9.52;;;6.68;;
63320;SDS011;49449;48.800;9.534;2023-04-06T06:47:08;10.60;;;7.57;;
63320;SDS011;49449;48.800;9.534;2023-04-06T06:49:35;9.80;;;7.15;;
63320;SDS011;49449;48.800;9.534;2023-04-06T06:52:05;8.38;;;7.30;;
63320;SDS011;49449;48.800;9.534;2023-04-06T06:54:33;9.40;;;8.07;;
63320;SDS011;49449;48.800;9.534;2023-04-06T06:57:01;9.27;;;7.63;;
63320;SDS011;49449;48.800;9.534;2023-04-06T06:59:29;8.63;;;7.75;;
63320;SDS011;49449;48.800;9.534;2023-04-06T07:01:56;8.73;;;7.15;;
63320;SDS011;49449;48.800;9.534;2023-04-06T07:04:24;10.60;;;9.13;;
63320;SDS011;49449;48.800;9.534;2023-04-06T07:06:54;10.32;;;8.05;;
63320;SDS011;49449;48.800;9.534;2023-04-06T07:09:23;9.05;;;8.10;;
63320;SDS011;49449;48.800;9.534;2023-04-06T07:11:53;10.73;;;7.70;;
63320;SDS011;49449;48.800;9.534;2023-04-06T07:14:22;10.02;;;8.38;;
63320;SDS011;49449;48.800;9.534;2023-04-06T07:16:50;10.30;;;7.82;;
63320;SDS011;49449;48.800;9.534;2023-04-06T07:19:18;9.45;;;7.63;;
63320;SDS011;49449;48.800;9.534;2023-04-06T07:21:46;11.23;;;8.93;;
63320;SDS011;49449;48.800;9.534;2023-04-06T07:24:15;9.95;;;8.20;;
63320;SDS011;49449;48.800;9.534;2023-04-06T07:26:44;9.80;;;8.25;;
63320;SDS011;49449;48.800;9.534;2023-04-06T07:29:12;9.63;;;7.63;;
63320;SDS011;49449;48.800;9.534;2023-04-06T07:31:40;9.20;;;8.30;;
63320;SDS011;49449;48.800;9.534;2023-04-06T07:34:08;9.23;;;7.25;;
63320;SDS011;49449;48.800;9.534;2023-04-06T07:36:36;9.60;;;8.18;;
63320;SDS011;49449;48.800;9.534;2023-04-06T07:39:04;9.82;;;8.70;;
63320;SDS011;49449;48.800;9.534;2023-04-06T07:41:32;8.57;;;7.68;;
63320;SDS011;49449;48.800;9.534;2023-04-06T07:44:02;10.95;;;8.50;;
63320;SDS011;49449;48.800;9.534;2023-04-06T07:46:31;9.00;;;7.65;;
63320;SDS011;49449;48.800;9.534;2023-04-06T07:48:59;9.73;;;7.72;;
63320;SDS011;49449;48.800;9.534;2023-04-06T07:51:28;9.48;;;8.48;;
63320;SDS011;49449;48.800;9.534;2023-04-06T07:53:57;10.40;;;9.35;;
63320;SDS011;49449;48.800;9.534;2023-04-06T07:56:25;8.90;;;7.90;;
63320;SDS011;49449;48.800;9.534;2023-04-06T07:58:52;10.45;;;8.57;;
63320;SDS011;49449;48.800;9.534;2023-04-06T08:01:24;11.05;;;8.85;;
63320;SDS011;49449;48.800;9.534;2023-04-06T08:03:52;11.23;;;9.55;;
63320;SDS011;49449;48.800;9.534;2023-04-06T08:06:21;12.30;;;9.57;;
63320;SDS011;49449;48.800;9.534;2023-04-06T08:08:49;8.80;;;7.80;;
63320;SDS011;49449;48.800;9.534;2023-04-06T08:11:17;10.15;;;8.60;;
63320;SDS011;49449;48.800;9.534;2023-04-06T08:13:45;9.32;;;7.72;;
63320;SDS011;49449;48.800;9.534;2023-04-06T08:16:13;13.05;;;8.98;;
63320;SDS011;49449;48.800;9.534;2023-04-06T08:18:42;11.07;;;9.35;;
63320;SDS011;49449;48.800;9.534;2023-04-06T08:21:10;9.15;;;7.47;;
63320;SDS011;49449;48.800;9.534;2023-04-06T08:23:38;9.73;;;8.73;;
63320;SDS011;49449;48.800;9.534;2023-04-06T08:26:06;9.35;;;8.30;;
63320;SDS011;49449;48.800;9.534;2023-04-06T08:28:34;9.85;;;8.45;;
63320;SDS011;49449;48.800;9.534;2023-04-06T08:31:03;13.07;;;9.57;;
63320;SDS011;49449;48.800;9.534;2023-04-06T08:33:32;9.32;;;8.30;;
63320;SDS011;49449;48.800;9.534;2023-04-06T08:36:10;10.60;;;8.07;;
63320;SDS011;49449;48.800;9.534;2023-04-06T08:38:39;10.15;;;8.75;;
63320;SDS011;49449;48.800;9.534;2023-04-06T08:41:09;9.15;;;8.15;;
63320;SDS011;49449;48.800;9.534;2023-04-06T08:43:40;11.15;;;8.50;;
63320;SDS011;49449;48.800;9.534;2023-04-06T08:46:10;9.82;;;8.02;;
63320;SDS011;49449;48.800;9.534;2023-04-06T08:48:38;8.82;;;7.18;;
63320;SDS011;49449;48.800;9.534;2023-04-06T08:51:08;9.98;;;8.20;;
63320;SDS011;49449;48.800;9.534;2023-04-06T08:53:37;10.27;;;8.73;;
63320;SDS011;49449;48.800;9.534;2023-04-06T08:56:06;9.70;;;7.80;;
63320;SDS011;49449;48.800;9.534;2023-04-06T08:58:37;9.88;;;8.88;;
63320;SDS011;49449;48.800;9.534;2023-04-06T09:01:07;10.05;;;8.30;;
63320;SDS011;49449;48.800;9.534;2023-04-06T09:03:36;9.73;;;7.78;;
63320;SDS011;49449;48.800;9.534;2023-04-06T09:06:06;9.68;;;7.50;;
63320;SDS011;49449;48.800;9.534;2023-04-06T09:08:37;10.00;;;7.93;;
63320;SDS011;49449;48.800;9.534;2023-04-06T09:11:06;10.48;;;8.57;;
63320;SDS011;49449;48.800;9.534;2023-04-06T09:13:44;10.43;;;8.27;;
63320;SDS011;49449;48.800;9.534;2023-04-06T09:16:13;10.27;;;9.23;;
63320;SDS011;49449;48.800;9.534;2023-04-06T09:18:41;10.60;;;8.25;;
63320;SDS011;49449;48.800;9.534;2023-04-06T09:21:10;9.25;;;7.32;;
63320;SDS011;49449;48.800;9.534;2023-04-06T09:23:40;10.30;;;7.78;;
63320;SDS011;49449;48.800;9.534;2023-04-06T09:26:09;11.18;;;8.30;;
63320;SDS011;49449;48.800;9.534;2023-04-06T09:28:44;9.43;;;7.85;;
63320;SDS011;49449;48.800;9.534;2023-04-06T09:31:14;9.80;;;7.80;;
63320;SDS011;49449;48.800;9.534;2023-04-06T09:33:43;10.18;;;8.20;;
63320;SDS011;49449;48.800;9.534;2023-04-06T09:36:12;10.82;;;8.68;;
63320;SDS011;49449;48.800;9.534;2023-04-06T09:38:53;9.75;;;7.68;;
63320;SDS011;49449;48.800;9.534;2023-04-06T09:41:22;9.63;;;7.80;;
63320;SDS011;49449;48.800;9.534;2023-04-06T09:43:51;10.65;;;8.30;;
63320;SDS011;49449;48.800;9.534;2023-04-06T09:46:20;9.73;;;8.45;;
63320;SDS011;49449;48.800;9.534;2023-04-06T09:48:50;9.90;;;7.50;;
63320;SDS011;49449;48.800;9.534;2023-04-06T09:51:19;9.30;;;6.93;;
63320;SDS011;49449;48.800;9.534;2023-04-06T09:53:49;8.95;;;7.30;;
63320;SDS011;49449;48.800;9.534;2023-04-06T09:56:22;8.27;;;6.75;;
63320;SDS011;49449;48.800;9.534;2023-04-06T09:58:57;8.32;;;6.25;;
63320;SDS011;49449;48.800;9.534;2023-04-06T10:01:30;9.85;;;7.63;;
63320;SDS011;49449;48.800;9.534;2023-04-06T10:04:04;7.85;;;6.25;;
63320;SDS011;49449;48.800;9.534;2023-04-06T10:06:52;7.53;;;6.00;;
63320;SDS011;49449;48.800;9.534;2023-04-06T10:09:22;7.43;;;5.65;;
63320;SDS011;49449;48.800;9.534;2023-04-06T10:11:55;7.88;;;6.30;;
63320;SDS011;49449;48.800;9.534;2023-04-06T10:14:25;8.38;;;7.18;;
63320;SDS011;49449;48.800;9.534;2023-04-06T10:16:53;8.00;;;7.15;;
63320;SDS011;49449;48.800;9.534;2023-04-06T10:19:22;7.95;;;7.15;;
63320;SDS011;49449;48.800;9.534;2023-04-06T10:21:54;6.93;;;5.78;;
63320;SDS011;49449;48.800;9.534;2023-04-06T10:24:27;7.57;;;6.05;;
63320;SDS011;49449;48.800;9.534;2023-04-06T10:26:58;8.57;;;6.38;;
63320;SDS011;49449;48.800;9.534;2023-04-06T10:29:26;8.00;;;6.90;;
63320;SDS011;49449;48.800;9.534;2023-04-06T10:31:54;8.45;;;7.53;;
63320;SDS011;49449;48.800;9.534;2023-04-06T10:34:22;8.73;;;5.95;;
63320;SDS011;49449;48.800;9.534;2023-04-06T10:36:50;7.55;;;6.18;;
63320;SDS011;49449;48.800;9.534;2023-04-06T10:39:23;7.43;;;5.82;;
63320;SDS011;49449;48.800;9.534;2023-04-06T10:41:53;6.20;;;5.60;;
63320;SDS011;49449;48.800;9.534;2023-04-06T10:44:22;7.78;;;6.63;;
63320;SDS011;49449;48.800;9.534;2023-04-06T10:46:55;7.65;;;6.53;;
63320;SDS011;49449;48.800;9.534;2023-04-06T10:49:24;8.05;;;6.53;;
63320;SDS011;49449;48.800;9.534;2023-04-06T10:51:53;6.63;;;5.93;;
63320;SDS011;49449;48.800;9.534;2023-04-06T10:54:22;8.02;;;6.10;;
63320;SDS011;49449;48.800;9.534;2023-04-06T10:56:53;8.27;;;6.70;;
63320;SDS011;49449;48.800;9.534;2023-04-06T10:59:22;7.47;;;5.95;;
63320;SDS011;49449;48.800;9.534;2023-04-06T11:01:51;7.50;;;6.13;;
63320;SDS011;49449;48.800;9.534;2023-04-06T11:04:19;8.05;;;5.57;;
63320;SDS011;49449;48.800;9.534;2023-04-06T11:06:48;7.40;;;6.10;;
63320;SDS011;49449;48.800;9.534;2023-04-06T11:09:23;6.22;;;5.50;;
63320;SDS011;49449;48.800;9.534;2023-04-06T11:11:53;6.72;;;4.93;;
63320;SDS011;49449;48.800;9.534;2023-04-06T11:14:22;8.10;;;6.47;;
63320;SDS011;49449;48.800;9.534;2023-04-06T11:16:50;5.95;;;4.95;;
63320;SDS011;49449;48.800;9.534;2023-04-06T11:19:18;7.82;;;6.65;;
63320;SDS011;49449;48.800;9.534;2023-04-06T11:21:47;6.00;;;5.10;;
63320;SDS011;49449;48.800;9.534;2023-04-06T11:24:17;6.85;;;4.45;;
63320;SDS011;49449;48.800;9.534;2023-04-06T11:26:47;6.80;;;5.68;;
63320;SDS011;49449;48.800;9.534;2023-04-06T11:29:19;6.57;;;5.13;;
63320;SDS011;49449;48.800;9.534;2023-04-06T11:31:48;7.78;;;5.70;;
63320;SDS011;49449;48.800;9.534;2023-04-06T11:34:17;6.20;;;5.45;;
63320;SDS011;49449;48.800;9.534;2023-04-06T11:36:47;6.55;;;4.85;;
63320;SDS011;49449;48.800;9.534;2023-04-06T11:39:18;6.40;;;5.47;;
63320;SDS011;49449;48.800;9.534;2023-04-06T11:41:47;5.25;;;3.92;;
63320;SDS011;49449;48.800;9.534;2023-04-06T11:44:15;6.55;;;4.50;;
63320;SDS011;49449;48.800;9.534;2023-04-06T11:46:56;6.70;;;4.93;;
63320;SDS011;49449;48.800;9.534;2023-04-06T11:49:26;6.03;;;5.43;;
63320;SDS011;49449;48.800;9.534;2023-04-06T11:51:54;6.35;;;5.43;;
63320;SDS011;49449;48.800;9.534;2023-04-06T11:54:29;5.43;;;4.40;;
63320;SDS011;49449;48.800;9.534;2023-04-06T11:56:58;4.80;;;4.40;;
63320;SDS011;49449;48.800;9.534;2023-04-06T11:59:26;5.90;;;4.95;;
63320;SDS011;49449;48.800;9.534;2023-04-06T12:01:57;4.80;;;3.55;;
63320;SDS011;49449;48.800;9.534;2023-04-06T12:04:25;6.35;;;4.93;;
63320;SDS011;49449;48.800;9.534;2023-04-06T12:06:52;5.72;;;4.90;;
63320;SDS011;49449;48.800;9.534;2023-04-06T12:09:20;6.07;;;5.47;;
63320;SDS011;49449;48.800;9.534;2023-04-06T12:11:48;5.72;;;4.78;;
63320;SDS011;49449;48.800;9.534;2023-04-06T12:14:16;5.13;;;3.60;;
63320;SDS011;49449;48.800;9.534;2023-04-06T12:16:44;4.95;;;4.47;;
63320;SDS011;49449;48.800;9.534;2023-04-06T12:19:14;5.35;;;4.00;;
63320;SDS011;49449;48.800;9.534;2023-04-06T12:21:41;6.70;;;4.30;;
63320;SDS011;49449;48.800;9.534;2023-04-06T12:24:09;5.22;;;4.32;;
63320;SDS011;49449;48.800;9.534;2023-04-06T12:26:37;4.65;;;4.07;;
63320;SDS011;49449;48.800;9.534;2023-04-06T12:29:05;6.40;;;4.07;;
63320;SDS011;49449;48.800;9.534;2023-04-06T12:31:34;4.45;;;3.90;;
63320;SDS011;49449;48.800;9.534;2023-04-06T12:34:04;4.55;;;4.03;;
63320;SDS011;49449;48.800;9.534;2023-04-06T12:36:33;4.82;;;4.05;;
63320;SDS011;49449;48.800;9.534;2023-04-06T12:39:01;4.82;;;4.32;;
63320;SDS011;49449;48.800;9.534;2023-04-06T12:41:29;5.32;;;4.75;;
63320;SDS011;49449;48.800;9.534;2023-04-06T12:43:57;4.47;;;3.92;;
63320;SDS011;49449;48.800;9.534;2023-04-06T12:46:26;4.93;;;4.15;;
63320;SDS011;49449;48.800;9.534;2023-04-06T12:48:56;5.43;;;4.60;;
63320;SDS011;49449;48.800;9.534;2023-04-06T12:51:27;4.82;;;3.70;;
63320;SDS011;49449;48.800;9.534;2023-04-06T12:53:56;5.70;;;4.30;;
63320;SDS011;49449;48.800;9.534;2023-04-06T12:56:24;5.13;;;3.90;;
63320;SDS011;49449;48.800;9.534;2023-04-06T12:58:53;4.35;;;3.72;;
63320;SDS011;49449;48.800;9.534;2023-04-06T13:01:21;4.82;;;4.32;;
63320;SDS011;49449;48.800;9.534;2023-04-06T13:03:49;4.90;;;4.18;;
63320;SDS011;49449;48.800;9.534;2023-04-06T13:06:17;5.25;;;4.00;;
63320;SDS011;49449;48.800;9.534;2023-04-06T13:08:45;5.90;;;4.32;;
63320;SDS011;49449;48.800;9.534;2023-04-06T13:11:17;5.53;;;4.18;;
63320;SDS011;49449;48.800;9.534;2023-04-06T13:13:46;6.38;;;4.93;;
63320;SDS011;49449;48.800;9.534;2023-04-06T13:16:14;5.18;;;4.22;;
63320;SDS011;49449;48.800;9.534;2023-04-06T13:18:42;6.50;;;4.00;;
63320;SDS011;49449;48.800;9.534;2023-04-06T13:21:13;5.68;;;4.53;;
63320;SDS011;49449;48.800;9.534;2023-04-06T13:23:42;4.78;;;4.05;;
63320;SDS011;49449;48.800;9.534;2023-04-06T13:26:10;5.43;;;3.92;;
63320;SDS011;49449;48.800;9.534;2023-04-06T13:28:40;4.97;;;3.85;;
63320;SDS011;49449;48.800;9.534;2023-04-06T13:31:08;4.50;;;3.85;;
63320;SDS011;49449;48.800;9.534;2023-04-06T13:33:36;5.95;;;4.45;;
63320;SDS011;49449;48.800;9.534;2023-04-06T13:36:05;4.43;;;3.65;;
63320;SDS011;49449;48.800;9.534;2023-04-06T13:38:34;4.78;;;3.78;;
63320;SDS011;49449;48.800;9.534;2023-04-06T13:41:05;5.28;;;4.65;;
63320;SDS011;49449;48.800;9.534;2023-04-06T13:43:33;4.65;;;4.15;;
63320;SDS011;49449;48.800;9.534;2023-04-06T13:46:02;4.60;;;3.88;;
63320;SDS011;49449;48.800;9.534;2023-04-06T13:48:30;5.53;;;4.38;;
63320;SDS011;49449;48.800;9.534;2023-04-06T13:51:07;6.53;;;4.22;;
63320;SDS011;49449;48.800;9.534;2023-04-06T13:53:35;5.32;;;4.50;;
63320;SDS011;49449;48.800;9.534;2023-04-06T13:56:04;6.72;;;4.40;;
63320;SDS011;49449;48.800;9.534;2023-04-06T13:58:32;6.47;;;4.63;;
63320;SDS011;49449;48.800;9.534;2023-04-06T14:01:03;6.22;;;4.95;;
63320;SDS011;49449;48.800;9.534;2023-04-06T14:03:32;6.15;;;5.25;;
63320;SDS011;49449;48.800;9.534;2023-04-06T14:06:01;5.40;;;4.90;;
63320;SDS011;49449;48.800;9.534;2023-04-06T14:08:41;4.72;;;4.28;;
63320;SDS011;49449;48.800;9.534;2023-04-06T14:11:10;5.43;;;4.28;;
63320;SDS011;49449;48.800;9.534;2023-04-06T14:13:39;7.05;;;5.35;;
63320;SDS011;49449;48.800;9.534;2023-04-06T14:16:08;7.38;;;5.22;;
63320;SDS011;49449;48.800;9.534;2023-04-06T14:18:36;5.63;;;4.88;;
63320;SDS011;49449;48.800;9.534;2023-04-06T14:21:04;6.25;;;4.22;;
63320;SDS011;49449;48.800;9.534;2023-04-06T14:23:32;5.68;;;4.60;;
63320;SDS011;49449;48.800;9.534;2023-04-06T14:26:02;5.15;;;4.55;;
63320;SDS011;49449;48.800;9.534;2023-04-06T14:28:31;5.75;;;4.45;;
63320;SDS011;49449;48.800;9.534;2023-04-06T14:31:00;4.97;;;4.43;;
63320;SDS011;49449;48.800;9.534;2023-04-06T14:33:30;6.15;;;3.97;;
63320;SDS011;49449;48.800;9.534;2023-04-06T14:35:58;6.75;;;4.72;;
63320;SDS011;49449;48.800;9.534;2023-04-06T14:38:26;6.72;;;4.97;;
63320;SDS011;49449;48.800;9.534;2023-04-06T14:40:53;4.85;;;4.10;;
63320;SDS011;49449;48.800;9.534;2023-04-06T14:43:22;4.80;;;4.10;;
63320;SDS011;49449;48.800;9.534;2023-04-06T14:45:50;7.65;;;4.95;;
63320;SDS011;49449;48.800;9.534;2023-04-06T14:48:17;6.97;;;4.82;;
63320;SDS011;49449;48.800;9.534;2023-04-06T14:50:52;4.72;;;4.07;;
63320;SDS011;49449;48.800;9.534;2023-04-06T14:53:21;4.53;;;3.78;;